createdAt,value
2019-05-05T00:01:14.663Z,91.80
2019-05-05T00:03:46.072Z,92.00
2019-05-05T00:06:15.575Z,92.00
2019-05-05T00:08:45.713Z,92.10
2019-05-05T00:11:35.164Z,92.10
2019-05-05T00:14:06.257Z,92.20
2019-05-05T00:16:40.097Z,92.30
2019-05-05T00:19:09.425Z,92.30
2019-05-05T00:21:38.801Z,92.30
2019-05-05T00:24:08.132Z,92.40
2019-05-05T00:26:37.604Z,92.40
2019-05-05T00:29:08.023Z,92.60
2019-05-05T00:31:37.475Z,92.70
2019-05-05T00:34:06.876Z,92.90
2019-05-05T00:36:39.238Z,93.30
2019-05-05T00:39:10.245Z,93.10
2019-05-05T00:41:39.667Z,93.30
2019-05-05T00:44:09.050Z,93.40
2019-05-05T00:46:55.066Z,93.80
2019-05-05T00:49:26.728Z,93.70
2019-05-05T00:51:56.437Z,93.70
2019-05-05T00:54:25.858Z,93.80
2019-05-05T00:56:55.272Z,93.90
2019-05-05T00:59:26.234Z,93.90
2019-05-05T01:02:15.056Z,94.10
2019-05-05T01:04:46.157Z,94.20
2019-05-05T01:07:16.450Z,94.30
2019-05-05T01:09:46.198Z,94.30
2019-05-05T01:12:16.060Z,94.30
2019-05-05T01:14:45.504Z,94.40
2019-05-05T01:17:14.940Z,94.40
2019-05-05T01:19:46.703Z,94.50
2019-05-05T01:22:15.402Z,94.50
2019-05-05T01:24:45.843Z,94.50
2019-05-05T01:27:15.425Z,94.50
2019-05-05T01:29:45.276Z,94.60
2019-05-05T01:32:16.527Z,94.80
2019-05-05T01:34:46.583Z,94.90
2019-05-05T01:37:17.699Z,94.90
2019-05-05T01:39:51.081Z,95.00
2019-05-05T01:42:20.448Z,95.00
2019-05-05T01:44:49.783Z,95.10
2019-05-05T01:47:19.136Z,95.20
2019-05-05T01:49:48.469Z,95.10
2019-05-05T01:52:17.838Z,95.20
2019-05-05T01:54:47.200Z,95.30
2019-05-05T01:57:16.620Z,95.40
2019-05-05T01:59:49.484Z,95.40
2019-05-05T02:02:18.820Z,95.40
2019-05-05T02:04:48.252Z,95.50
2019-05-05T02:07:17.663Z,95.60
2019-05-05T02:09:47.012Z,95.70
2019-05-05T02:12:17.624Z,95.70
2019-05-05T02:14:46.980Z,96.10
2019-05-05T02:17:16.329Z,95.90
2019-05-05T02:19:45.720Z,95.90
2019-05-05T02:22:15.238Z,95.90
2019-05-05T02:24:44.664Z,95.80
2019-05-05T02:27:14.780Z,95.80
2019-05-05T02:29:55.041Z,95.80
2019-05-05T02:32:26.107Z,95.90
2019-05-05T02:35:00.156Z,96.00
2019-05-05T02:37:29.575Z,96.10
2019-05-05T02:40:04.360Z,96.40
2019-05-05T02:42:30.825Z,96.40
2019-05-05T02:45:05.462Z,96.40
2019-05-05T02:47:47.955Z,96.60
2019-05-05T02:50:18.181Z,96.80
2019-05-05T02:52:48.133Z,96.90
2019-05-05T02:55:19.517Z,97.00
2019-05-05T02:58:08.278Z,96.90
2019-05-05T03:00:56.040Z,96.90
2019-05-05T03:03:26.006Z,97.10
2019-05-05T03:05:55.723Z,97.10
2019-05-05T03:08:26.214Z,97.20
2019-05-05T03:10:57.193Z,97.30
2019-05-05T03:13:26.873Z,97.40
2019-05-05T03:16:23.748Z,97.50
2019-05-05T03:18:54.578Z,97.60
2019-05-05T03:21:24.325Z,97.80
2019-05-05T03:23:54.748Z,97.90
2019-05-05T03:26:24.639Z,97.90
2019-05-05T03:28:55.759Z,98.10
2019-05-05T03:31:26.552Z,98.20
2019-05-05T03:33:57.190Z,98.40
2019-05-05T03:36:28.162Z,98.50
2019-05-05T03:38:58.113Z,98.60
2019-05-05T03:41:30.453Z,98.60
2019-05-05T03:44:01.406Z,98.70
2019-05-05T03:46:34.442Z,98.80
2019-05-05T03:49:04.897Z,98.90
2019-05-05T03:51:34.662Z,98.80
2019-05-05T03:54:04.573Z,98.70
2019-05-05T03:56:34.749Z,99.10
2019-05-05T03:59:06.407Z,99.30
2019-05-05T04:01:39.192Z,99.50
2019-05-05T04:04:26.695Z,99.50
2019-05-05T04:06:57.726Z,99.50
2019-05-05T04:09:27.068Z,99.40
2019-05-05T04:11:56.501Z,99.40
2019-05-05T04:14:25.925Z,99.30
2019-05-05T04:16:57.355Z,99.10
2019-05-05T04:19:28.336Z,98.90
2019-05-05T04:21:57.720Z,98.80
2019-05-05T04:24:27.151Z,98.60
2019-05-05T04:26:56.544Z,98.60
2019-05-05T04:29:25.857Z,98.50
2019-05-05T04:31:55.267Z,98.30
2019-05-05T04:34:24.597Z,98.50
2019-05-05T04:36:54.653Z,98.40
2019-05-05T04:39:24.177Z,98.20
2019-05-05T04:41:54.588Z,98.20
2019-05-05T04:44:24.091Z,98.10
2019-05-05T04:46:55.078Z,98.00
2019-05-05T04:49:34.711Z,98.10
2019-05-05T04:52:14.587Z,97.60
2019-05-05T04:54:48.597Z,97.80
2019-05-05T04:57:17.935Z,97.60
2019-05-05T04:59:48.815Z,97.40
2019-05-05T05:02:23.600Z,97.40
2019-05-05T05:04:54.743Z,97.40
2019-05-05T05:07:25.779Z,97.30
2019-05-05T05:09:55.105Z,97.10
2019-05-05T05:12:24.517Z,96.90
2019-05-05T05:14:54.654Z,96.80
2019-05-05T05:17:34.760Z,96.70
2019-05-05T05:20:06.619Z,96.50
2019-05-05T05:22:35.961Z,96.20
2019-05-05T05:25:06.725Z,96.10
2019-05-05T05:27:37.679Z,95.80
2019-05-05T05:30:07.736Z,95.60
2019-05-05T05:32:39.753Z,95.40
2019-05-05T05:35:08.227Z,95.20
2019-05-05T05:37:37.667Z,95.20
2019-05-05T05:40:08.999Z,95.00
2019-05-05T05:42:38.347Z,94.90
2019-05-05T05:45:09.556Z,94.70
2019-05-05T05:47:58.553Z,94.70
2019-05-05T05:50:33.954Z,94.30
2019-05-05T05:53:04.682Z,94.20
2019-05-05T05:55:34.461Z,93.90
2019-05-05T05:58:04.764Z,93.80
2019-05-05T06:00:34.586Z,93.60
2019-05-05T06:03:04.114Z,93.60
2019-05-05T06:05:34.838Z,93.60
2019-05-05T06:08:04.697Z,93.50
2019-05-05T06:10:34.459Z,93.00
2019-05-05T06:13:04.249Z,92.80
2019-05-05T06:15:35.225Z,92.70
2019-05-05T06:18:04.876Z,92.50
2019-05-05T06:20:34.571Z,92.20
2019-05-05T06:23:04.289Z,91.50
2019-05-05T06:25:34.397Z,91.80
2019-05-05T06:28:04.401Z,91.40
2019-05-05T06:30:34.986Z,91.40
2019-05-05T06:33:05.448Z,90.80
2019-05-05T06:35:34.794Z,90.90
2019-05-05T06:38:04.674Z,90.80
2019-05-05T06:40:35.925Z,90.60
2019-05-05T06:43:18.792Z,90.50
2019-05-05T06:45:49.773Z,90.30
2019-05-05T06:48:19.109Z,90.20
2019-05-05T06:50:48.463Z,89.80
2019-05-05T06:53:17.812Z,88.60
2019-05-05T06:55:47.181Z,87.90
2019-05-05T06:58:16.537Z,87.70
2019-05-05T07:00:45.895Z,87.00
2019-05-05T07:03:15.290Z,86.10
2019-05-05T07:05:44.616Z,86.00
2019-05-05T07:08:14.016Z,85.60
2019-05-05T07:10:44.403Z,84.70
2019-05-05T07:13:14.126Z,84.40
2019-05-05T07:15:44.571Z,83.20
2019-05-05T07:18:14.947Z,82.70
2019-05-05T07:20:44.367Z,79.90
2019-05-05T07:23:19.667Z,79.40
2019-05-05T07:25:49.014Z,79.50
2019-05-05T07:28:23.708Z,77.40
2019-05-05T07:30:54.824Z,76.70
2019-05-05T07:33:24.329Z,76.10
2019-05-05T07:36:01.375Z,76.30
2019-05-05T07:38:28.407Z,75.30
2019-05-05T07:40:57.901Z,72.10
2019-05-05T07:43:29.667Z,69.10
2019-05-05T07:46:01.390Z,71.60
2019-05-05T07:48:33.476Z,70.60
2019-05-05T07:51:05.611Z,66.70
2019-05-05T07:53:35.150Z,66.70
2019-05-05T07:56:07.644Z,62.90
2019-05-05T07:58:37.179Z,63.70
2019-05-05T08:01:07.140Z,65.20
2019-05-05T08:03:36.655Z,63.10
2019-05-05T08:06:06.227Z,64.10
2019-05-05T08:08:35.575Z,64.50
2019-05-05T08:11:04.960Z,62.00
2019-05-05T08:13:34.558Z,61.90
2019-05-05T08:16:06.633Z,61.70
2019-05-05T08:18:38.369Z,61.20
2019-05-05T08:21:08.441Z,60.20
2019-05-05T08:23:39.748Z,59.30
2019-05-05T08:26:10.720Z,60.00
2019-05-05T08:28:47.569Z,59.80
2019-05-05T08:31:21.643Z,59.00
2019-05-05T08:33:54.559Z,58.30
2019-05-05T08:36:23.539Z,57.40
2019-05-05T08:38:54.645Z,54.90
2019-05-05T08:41:24.473Z,53.10
2019-05-05T08:43:54.353Z,49.10
2019-05-05T08:46:24.757Z,50.90
2019-05-05T08:48:54.696Z,50.40
2019-05-05T08:51:24.758Z,50.80
2019-05-05T08:53:55.063Z,48.10
2019-05-05T08:56:24.782Z,47.80
2019-05-05T09:41:44.575Z,39.90
2019-05-05T09:44:14.310Z,40.70
2019-05-05T09:46:44.611Z,42.10
2019-05-05T09:49:15.186Z,42.20
2019-05-05T09:51:44.584Z,43.70
2019-05-05T09:54:16.730Z,43.00
2019-05-05T09:56:44.982Z,43.60
2019-05-05T09:59:14.384Z,43.80
2019-05-05T10:01:44.471Z,38.00
2019-05-05T10:04:14.438Z,35.60
2019-05-05T10:06:47.717Z,35.50
2019-05-05T10:09:14.820Z,36.00
2019-05-05T10:11:44.974Z,36.40
2019-05-05T10:14:15.059Z,37.60
2019-05-05T10:16:44.767Z,37.20
2019-05-05T10:19:14.261Z,37.10
2019-05-05T10:21:44.404Z,36.10
2019-05-05T10:24:30.988Z,34.00
2019-05-05T10:26:58.830Z,35.00
2019-05-05T10:29:28.529Z,35.30
2019-05-05T10:31:59.891Z,35.20
2019-05-05T10:34:30.875Z,33.10
2019-05-05T10:37:00.199Z,31.80
2019-05-05T10:39:37.158Z,32.20
2019-05-05T10:42:06.739Z,32.80
2019-05-05T10:44:36.558Z,33.40
2019-05-05T10:47:06.363Z,32.80
2019-05-05T10:49:36.200Z,33.10
2019-05-05T10:52:05.986Z,33.20
2019-05-05T10:54:44.127Z,33.70
2019-05-05T10:57:09.190Z,33.10
2019-05-05T10:59:38.674Z,33.00
2019-05-05T11:02:08.362Z,32.40
2019-05-05T11:04:38.119Z,31.50
2019-05-05T11:07:07.725Z,29.30
2019-05-05T11:09:37.395Z,29.10
2019-05-05T11:12:07.238Z,29.30
2019-05-05T11:14:37.945Z,31.10
2019-05-05T11:17:07.654Z,31.90
2019-05-05T11:19:37.536Z,31.30
2019-05-05T11:22:07.319Z,32.60
2019-05-05T11:24:37.034Z,32.40
2019-05-05T11:27:06.662Z,31.20
2019-05-05T11:29:39.860Z,30.60
2019-05-05T11:32:17.906Z,29.20
2019-05-05T11:34:48.222Z,29.50
2019-05-05T11:37:21.457Z,28.60
2019-05-05T11:39:50.897Z,29.20
2019-05-05T11:42:20.583Z,28.80
2019-05-05T11:44:50.056Z,29.10
2019-05-05T11:47:20.453Z,29.60
2019-05-05T11:49:54.538Z,30.00
2019-05-05T11:52:22.432Z,31.10
2019-05-05T11:54:51.783Z,30.30
2019-05-05T11:57:21.159Z,31.80
2019-05-05T11:59:50.524Z,31.60
2019-05-05T12:02:19.972Z,30.20
2019-05-05T12:04:49.712Z,31.00
2019-05-05T12:07:19.060Z,30.70
2019-05-05T12:09:50.071Z,31.80
2019-05-05T12:12:19.432Z,32.40
2019-05-05T12:14:49.347Z,33.00
2019-05-05T12:17:20.417Z,33.60
2019-05-05T12:19:50.113Z,33.20
2019-05-05T12:22:19.529Z,32.00
2019-05-05T12:24:49.857Z,31.20
2019-05-05T12:27:24.602Z,30.40
2019-05-05T12:29:55.399Z,29.70
2019-05-05T12:32:24.757Z,29.30
2019-05-05T12:34:54.224Z,28.70
2019-05-05T12:37:24.815Z,28.60
2019-05-05T12:39:54.631Z,28.50
2019-05-05T12:42:24.340Z,27.80
2019-05-05T12:44:56.454Z,28.80
2019-05-05T12:47:35.967Z,29.40
2019-05-05T12:50:06.857Z,27.90
2019-05-05T12:52:36.304Z,28.00
2019-05-05T12:55:06.494Z,27.60
2019-05-05T12:57:35.811Z,27.40
2019-05-05T13:00:08.048Z,29.40
2019-05-05T13:02:37.469Z,32.10
2019-05-05T13:05:07.932Z,32.60
2019-05-05T13:07:39.127Z,32.10
2019-05-05T13:10:09.994Z,32.10
2019-05-05T13:12:39.469Z,32.90
2019-05-05T13:15:09.291Z,34.50
2019-05-05T13:17:39.721Z,35.50
2019-05-05T13:20:10.900Z,36.00
2019-05-05T13:22:48.118Z,36.30
2019-05-05T13:25:25.319Z,36.30
2019-05-05T13:27:57.403Z,35.50
2019-05-05T13:30:27.104Z,33.90
2019-05-05T13:32:56.672Z,32.30
2019-05-05T13:35:26.043Z,30.20
2019-05-05T13:37:55.393Z,28.90
2019-05-05T13:40:24.803Z,28.80
2019-05-05T13:42:54.797Z,29.90
2019-05-05T13:45:31.747Z,30.10
2019-05-05T13:48:03.487Z,30.80
2019-05-05T13:50:34.693Z,31.40
2019-05-05T13:53:04.163Z,31.70
2019-05-05T13:55:35.245Z,32.30
2019-05-05T13:58:08.757Z,32.80
2019-05-05T14:00:37.346Z,33.00
2019-05-05T14:03:06.755Z,33.10
2019-05-05T14:05:36.140Z,33.00
2019-05-05T14:08:05.535Z,33.60
2019-05-05T14:10:34.887Z,33.40
2019-05-05T14:13:04.217Z,33.60
2019-05-05T14:15:34.127Z,33.20
2019-05-05T14:18:04.987Z,33.00
2019-05-05T14:20:34.595Z,31.30
2019-05-05T14:23:04.710Z,32.10
2019-05-05T14:25:34.122Z,31.90
2019-05-05T14:28:04.375Z,31.20
2019-05-05T14:30:35.504Z,31.30
2019-05-05T14:33:08.545Z,31.20
2019-05-05T14:35:39.515Z,31.90
2019-05-05T14:38:11.001Z,32.20
2019-05-05T14:40:41.675Z,32.30
2019-05-05T14:43:11.103Z,32.80
2019-05-05T14:45:40.431Z,32.70
2019-05-05T14:48:11.432Z,32.20
2019-05-05T14:50:40.859Z,32.20
2019-05-05T14:53:10.271Z,32.00
2019-05-05T14:55:39.648Z,32.20
2019-05-05T14:58:09.040Z,32.50
2019-05-05T15:00:39.522Z,32.50
2019-05-05T15:03:09.141Z,32.60
2019-05-05T15:05:46.161Z,33.10
2019-05-05T15:08:17.169Z,33.20
2019-05-05T15:10:48.140Z,33.10
2019-05-05T15:13:18.290Z,33.30
2019-05-05T15:15:48.969Z,32.40
2019-05-05T15:18:18.340Z,32.00
2019-05-05T15:20:47.755Z,31.20
2019-05-05T15:23:17.218Z,30.80
2019-05-05T15:25:47.644Z,29.40
2019-05-05T15:28:17.094Z,29.70
2019-05-05T15:30:46.501Z,29.30
2019-05-05T15:33:15.875Z,29.70
2019-05-05T15:35:46.571Z,29.40
2019-05-05T15:38:16.133Z,29.80
2019-05-05T15:40:47.928Z,29.60
2019-05-05T15:43:17.672Z,30.00
2019-05-05T15:45:47.108Z,30.00
2019-05-05T15:48:16.438Z,30.00
2019-05-05T15:50:45.771Z,29.80
2019-05-05T15:53:15.158Z,29.70
2019-05-05T15:55:45.338Z,29.20
2019-05-05T15:58:16.287Z,29.00
2019-05-05T16:00:45.621Z,28.90
2019-05-05T16:03:15.039Z,29.60
2019-05-05T16:05:44.389Z,30.30
2019-05-05T16:08:14.155Z,30.90
2019-05-05T16:10:46.331Z,31.30
2019-05-05T16:13:15.138Z,31.00
2019-05-05T16:15:46.226Z,31.60
2019-05-05T16:18:17.293Z,32.00
2019-05-05T16:21:04.683Z,32.10
2019-05-05T16:23:47.662Z,32.40
2019-05-05T16:26:17.008Z,32.90
2019-05-05T16:28:46.505Z,32.80
2019-05-05T16:31:15.987Z,32.90
2019-05-05T16:33:45.580Z,33.50
2019-05-05T16:36:15.503Z,33.80
2019-05-05T16:38:45.530Z,33.80
2019-05-05T16:41:15.421Z,33.80
2019-05-05T16:43:44.980Z,34.00
2019-05-05T16:46:17.030Z,33.90
2019-05-05T16:48:45.369Z,33.20
2019-05-05T16:51:16.404Z,32.50
2019-05-05T16:53:45.837Z,32.70
2019-05-05T16:56:16.510Z,32.90
2019-05-05T16:58:46.071Z,32.40
2019-05-05T17:01:17.007Z,32.40
2019-05-05T17:03:46.687Z,32.70
2019-05-05T17:06:16.076Z,33.60
2019-05-05T17:08:45.752Z,33.60
2019-05-05T17:11:15.299Z,33.90
2019-05-05T17:13:46.356Z,33.60
2019-05-05T17:16:35.295Z,33.70
2019-05-05T17:19:16.333Z,32.80
2019-05-05T17:21:47.388Z,32.80
2019-05-05T17:24:16.977Z,32.70
2019-05-05T17:26:46.392Z,32.70
2019-05-05T17:29:16.838Z,33.50
2019-05-05T17:31:46.258Z,33.50
2019-05-05T17:34:15.716Z,33.90
2019-05-05T17:36:45.386Z,34.10
2019-05-05T17:39:36.071Z,34.40
2019-05-05T17:42:07.117Z,34.90
2019-05-05T17:44:44.405Z,35.00
2019-05-05T17:47:30.833Z,35.30
2019-05-05T17:50:04.031Z,35.60
2019-05-05T17:52:36.792Z,36.00
2019-05-05T17:55:27.469Z,36.10
2019-05-05T17:58:01.583Z,36.40
2019-05-05T18:00:30.438Z,36.80
2019-05-05T18:02:59.932Z,36.90
2019-05-05T18:05:48.648Z,37.20
2019-05-05T18:08:19.688Z,37.60
2019-05-05T18:10:50.539Z,37.80
2019-05-05T18:13:22.061Z,38.10
2019-05-05T18:15:56.759Z,38.50
2019-05-05T18:18:26.772Z,38.80
2019-05-05T18:20:58.060Z,39.10
2019-05-05T18:23:28.118Z,39.30
2019-05-05T18:26:01.508Z,39.80
2019-05-05T18:28:30.965Z,40.10
2019-05-05T18:31:01.469Z,40.60
2019-05-05T18:33:31.067Z,40.80
2019-05-05T18:36:00.833Z,40.90
2019-05-05T18:38:30.497Z,41.10
2019-05-05T18:41:03.607Z,41.40
2019-05-05T18:43:40.291Z,40.90
2019-05-05T18:46:09.966Z,41.20
2019-05-05T18:48:40.307Z,41.20
2019-05-05T18:51:09.722Z,41.30
2019-05-05T18:53:39.482Z,41.70
2019-05-05T18:56:08.946Z,41.60
2019-05-05T18:58:38.362Z,41.30
2019-05-05T19:01:09.545Z,41.30
2019-05-05T19:03:47.766Z,41.70
2019-05-05T19:06:18.862Z,41.40
2019-05-05T19:08:54.582Z,41.50
2019-05-05T19:11:24.578Z,41.70
2019-05-05T19:13:54.163Z,41.90
2019-05-05T19:16:23.805Z,41.90
2019-05-05T19:18:55.446Z,42.10
2019-05-05T19:21:26.098Z,42.30
2019-05-05T19:23:55.547Z,42.20
2019-05-05T19:26:24.995Z,42.20
2019-05-05T19:28:55.428Z,42.30
2019-05-05T19:31:24.981Z,42.60
2019-05-05T19:33:56.041Z,42.90
2019-05-05T19:36:27.512Z,43.00
2019-05-05T19:38:57.159Z,42.90
2019-05-05T19:41:27.751Z,43.20
2019-05-05T19:43:57.208Z,43.30
2019-05-05T19:46:31.256Z,43.90
2019-05-05T19:49:20.113Z,44.40
2019-05-05T19:51:50.063Z,44.50
2019-05-05T19:54:19.442Z,45.00
2019-05-05T19:56:48.958Z,45.20
2019-05-05T19:59:18.388Z,46.60
2019-05-05T20:01:47.830Z,46.80
2019-05-05T20:04:17.205Z,47.00
2019-05-05T20:06:46.517Z,47.20
2019-05-05T20:09:16.223Z,47.30
2019-05-05T20:11:45.662Z,46.90
2019-05-05T20:14:17.869Z,47.20
2019-05-05T20:17:00.844Z,47.20
2019-05-05T20:19:34.191Z,47.30
2019-05-05T20:22:03.603Z,47.70
2019-05-05T20:24:33.698Z,48.00
2019-05-05T20:27:05.325Z,48.30
2019-05-05T20:29:37.347Z,48.70
2019-05-05T20:32:05.704Z,49.30
2019-05-05T20:34:54.036Z,50.30
2019-05-05T20:37:24.641Z,51.30
2019-05-05T20:39:54.417Z,51.60
2019-05-05T20:42:23.919Z,52.70
2019-05-05T20:44:54.435Z,52.10
2019-05-05T20:47:23.971Z,53.40
2019-05-05T20:49:54.268Z,52.80
2019-05-05T20:52:23.779Z,53.40
2019-05-05T20:54:53.878Z,53.90
2019-05-05T20:57:24.523Z,53.40
2019-05-05T20:59:53.868Z,54.70
2019-05-05T21:02:24.324Z,55.60
2019-05-05T21:04:54.178Z,56.60
2019-05-05T21:07:26.464Z,56.50
2019-05-05T21:09:56.376Z,56.40
2019-05-05T21:12:39.145Z,55.50
2019-05-05T21:14:56.800Z,55.00
2019-05-05T21:17:26.204Z,54.10
2019-05-05T21:19:55.620Z,53.00
2019-05-05T21:22:44.274Z,52.10
2019-05-05T21:25:24.807Z,51.90
2019-05-05T21:27:54.125Z,51.50
2019-05-05T21:30:24.666Z,51.00
2019-05-05T21:32:54.986Z,50.90
2019-05-05T21:35:25.354Z,50.80
2019-05-05T21:37:55.820Z,50.90
2019-05-05T21:40:26.019Z,50.50
2019-05-05T21:42:55.361Z,50.00
2019-05-05T21:45:24.782Z,49.00
2019-05-05T21:47:54.931Z,48.70
2019-05-05T21:50:33.885Z,48.40
2019-05-05T21:53:08.086Z,48.40
2019-05-05T21:55:39.080Z,48.60
2019-05-05T21:58:15.839Z,48.90
2019-05-05T22:00:50.131Z,49.20
2019-05-05T22:03:25.074Z,50.00
2019-05-05T22:05:56.009Z,50.00
2019-05-05T22:08:25.465Z,50.50
2019-05-05T22:10:54.820Z,51.10
2019-05-05T22:13:25.670Z,51.50
2019-05-05T22:15:55.017Z,52.00
2019-05-05T22:18:24.418Z,52.50
2019-05-05T22:20:58.342Z,53.50
2019-05-05T22:23:33.987Z,53.80
2019-05-05T22:26:11.329Z,54.80
2019-05-05T22:28:40.707Z,55.90
2019-05-05T22:31:10.073Z,56.60
2019-05-05T22:33:39.428Z,57.20
2019-05-05T22:36:08.758Z,57.50
2019-05-05T22:38:38.090Z,58.50
2019-05-05T22:41:07.403Z,58.10
2019-05-05T22:43:36.740Z,58.60
2019-05-05T22:46:06.065Z,59.00
2019-05-05T22:48:35.400Z,59.90
2019-05-05T22:51:04.804Z,60.10
2019-05-05T22:53:34.704Z,60.70
2019-05-05T22:56:04.379Z,61.00
2019-05-05T22:58:34.955Z,61.80
2019-05-05T23:01:04.681Z,62.40
2019-05-05T23:03:40.365Z,63.10
2019-05-05T23:06:11.382Z,63.40
2019-05-05T23:08:41.200Z,65.10
2019-05-05T23:11:12.043Z,64.80
2019-05-05T23:13:44.368Z,65.60
2019-05-05T23:16:18.306Z,66.50
2019-05-05T23:18:47.651Z,67.20
2019-05-05T23:21:27.567Z,68.00
2019-05-05T23:24:07.501Z,68.80
2019-05-05T23:26:44.531Z,69.70
2019-05-05T23:29:13.929Z,70.10
2019-05-05T23:31:44.482Z,70.90
2019-05-05T23:34:14.762Z,71.10
2019-05-05T23:36:44.415Z,71.80
2019-05-05T23:39:13.820Z,72.30
2019-05-05T23:41:43.167Z,72.50
2019-05-05T23:44:14.351Z,73.00
2019-05-05T23:46:43.928Z,73.40
2019-05-05T23:49:14.397Z,73.70
2019-05-05T23:51:44.112Z,74.10
2019-05-05T23:54:13.710Z,74.30
2019-05-05T23:56:44.106Z,74.70
2019-05-05T23:59:19.286Z,75.00
